sensor_id;sensor_type;location;lat;lon;timestamp;pressure;altitude;pressure_sealevel;temperature;humidity
62697;BME280;48761;42.680;23.312;2023-07-09T00:00:48;95220.47;;;22.19;49.38
62697;BME280;48761;42.680;23.312;2023-07-09T00:03:15;95234.66;;;22.04;49.84
62697;BME280;48761;42.680;23.312;2023-07-09T00:05:42;95228.94;;;21.91;49.92
62697;BME280;48761;42.680;23.312;2023-07-09T00:08:24;95229.75;;;21.83;50.57
62697;BME280;48761;42.680;23.312;2023-07-09T00:10:50;95235.00;;;21.84;50.34
62697;BME280;48761;42.680;23.312;2023-07-09T00:13:16;95213.69;;;21.65;51.06
62697;BME280;48761;42.680;23.312;2023-07-09T00:15:42;95214.38;;;21.58;51.12
62697;BME280;48761;42.680;23.312;2023-07-09T00:18:09;95214.34;;;21.50;51.35
62697;BME280;48761;42.680;23.312;2023-07-09T00:20:35;95222.88;;;21.89;50.70
62697;BME280;48761;42.680;23.312;2023-07-09T00:23:01;95216.72;;;21.70;50.38
62697;BME280;48761;42.680;23.312;2023-07-09T00:25:27;95194.06;;;21.29;51.21
62697;BME280;48761;42.680;23.312;2023-07-09T00:27:53;95226.50;;;21.37;51.53
62697;BME280;48761;42.680;23.312;2023-07-09T00:30:20;95223.66;;;21.47;51.22
62697;BME280;48761;42.680;23.312;2023-07-09T00:32:47;95216.41;;;21.56;50.58
62697;BME280;48761;42.680;23.312;2023-07-09T00:35:13;95221.13;;;21.46;51.33
62697;BME280;48761;42.680;23.312;2023-07-09T00:37:39;95217.44;;;21.64;50.07
62697;BME280;48761;42.680;23.312;2023-07-09T00:40:08;95216.06;;;21.59;50.11
62697;BME280;48761;42.680;23.312;2023-07-09T00:42:36;95213.34;;;21.68;50.37
62697;BME280;48761;42.680;23.312;2023-07-09T00:45:02;95211.16;;;21.63;49.90
62697;BME280;48761;42.680;23.312;2023-07-09T00:50:38;95209.28;;;21.38;50.34
62697;BME280;48761;42.680;23.312;2023-07-09T00:53:27;95205.75;;;21.55;50.40
62697;BME280;48761;42.680;23.312;2023-07-09T00:55:59;95202.88;;;21.56;50.18
62697;BME280;48761;42.680;23.312;2023-07-09T00:58:27;95183.91;;;21.23;50.58
62697;BME280;48761;42.680;23.312;2023-07-09T01:00:56;95188.44;;;21.05;50.33
62697;BME280;48761;42.680;23.312;2023-07-09T01:03:28;95201.00;;;21.23;50.28
62697;BME280;48761;42.680;23.312;2023-07-09T01:05:54;95201.81;;;21.24;50.60
62697;BME280;48761;42.680;23.312;2023-07-09T01:08:21;95203.19;;;21.28;50.49
62697;BME280;48761;42.680;23.312;2023-07-09T01:10:47;95207.53;;;21.12;50.69
62697;BME280;48761;42.680;23.312;2023-07-09T01:13:13;95186.59;;;21.14;50.27
62697;BME280;48761;42.680;23.312;2023-07-09T01:15:40;95202.50;;;21.34;50.15
62697;BME280;48761;42.680;23.312;2023-07-09T01:18:06;95199.50;;;21.63;49.30
62697;BME280;48761;42.680;23.312;2023-07-09T01:20:33;95196.63;;;21.47;50.17
62697;BME280;48761;42.680;23.312;2023-07-09T01:22:59;95188.63;;;21.12;50.56
62697;BME280;48761;42.680;23.312;2023-07-09T01:25:24;95188.16;;;21.42;50.18
62697;BME280;48761;42.680;23.312;2023-07-09T01:27:50;95185.97;;;21.37;49.67
62697;BME280;48761;42.680;23.312;2023-07-09T01:30:25;95189.31;;;21.23;50.25
62697;BME280;48761;42.680;23.312;2023-07-09T01:32:56;95180.50;;;21.04;50.46
62697;BME280;48761;42.680;23.312;2023-07-09T01:35:23;95175.41;;;21.01;50.94
62697;BME280;48761;42.680;23.312;2023-07-09T01:37:49;95180.03;;;21.17;50.71
62697;BME280;48761;42.680;23.312;2023-07-09T01:40:18;95163.19;;;20.88;51.50
62697;BME280;48761;42.680;23.312;2023-07-09T01:42:44;95177.75;;;20.96;51.01
62697;BME280;48761;42.680;23.312;2023-07-09T01:45:10;95188.22;;;20.99;50.47
62697;BME280;48761;42.680;23.312;2023-07-09T01:47:37;95196.19;;;21.00;50.81
62697;BME280;48761;42.680;23.312;2023-07-09T01:50:05;95199.66;;;20.84;51.40
62697;BME280;48761;42.680;23.312;2023-07-09T01:52:32;95194.56;;;20.72;51.18
62697;BME280;48761;42.680;23.312;2023-07-09T01:54:58;95204.75;;;20.87;51.34
62697;BME280;48761;42.680;23.312;2023-07-09T01:57:26;95212.44;;;20.74;51.63
62697;BME280;48761;42.680;23.312;2023-07-09T01:59:54;95201.00;;;20.80;51.25
62697;BME280;48761;42.680;23.312;2023-07-09T02:02:21;95208.09;;;20.81;51.31
62697;BME280;48761;42.680;23.312;2023-07-09T02:04:49;95206.00;;;20.66;52.00
62697;BME280;48761;42.680;23.312;2023-07-09T02:07:15;95199.44;;;20.69;52.12
62697;BME280;48761;42.680;23.312;2023-07-09T02:09:42;95211.81;;;20.80;51.98
62697;BME280;48761;42.680;23.312;2023-07-09T02:12:09;95208.94;;;20.81;51.97
62697;BME280;48761;42.680;23.312;2023-07-09T02:14:36;95216.31;;;20.63;52.84
62697;BME280;48761;42.680;23.312;2023-07-09T02:17:02;95200.09;;;20.63;52.30
62697;BME280;48761;42.680;23.312;2023-07-09T02:19:28;95199.16;;;20.45;52.02
62697;BME280;48761;42.680;23.312;2023-07-09T02:21:55;95210.59;;;20.74;52.56
62697;BME280;48761;42.680;23.312;2023-07-09T02:24:21;95191.75;;;20.91;52.04
62697;BME280;48761;42.680;23.312;2023-07-09T02:26:47;95209.56;;;21.10;51.58
62697;BME280;48761;42.680;23.312;2023-07-09T02:29:13;95213.03;;;20.94;51.89
62697;BME280;48761;42.680;23.312;2023-07-09T02:31:39;95209.53;;;21.02;51.56
62697;BME280;48761;42.680;23.312;2023-07-09T02:34:05;95211.72;;;20.63;52.31
62697;BME280;48761;42.680;23.312;2023-07-09T02:36:31;95219.75;;;20.81;52.27
62697;BME280;48761;42.680;23.312;2023-07-09T02:38:57;95209.78;;;20.82;52.36
62697;BME280;48761;42.680;23.312;2023-07-09T02:41:23;95216.09;;;20.99;51.54
62697;BME280;48761;42.680;23.312;2023-07-09T02:43:49;95213.47;;;20.72;52.06
62697;BME280;48761;42.680;23.312;2023-07-09T02:46:15;95228.91;;;20.54;52.69
62697;BME280;48761;42.680;23.312;2023-07-09T02:48:42;95220.84;;;20.62;52.25
62697;BME280;48761;42.680;23.312;2023-07-09T02:51:08;95227.63;;;20.66;53.05
62697;BME280;48761;42.680;23.312;2023-07-09T02:53:34;95234.00;;;20.57;52.76
62697;BME280;48761;42.680;23.312;2023-07-09T02:56:00;95233.56;;;20.43;52.96
62697;BME280;48761;42.680;23.312;2023-07-09T02:58:26;95243.91;;;20.83;52.24
62697;BME280;48761;42.680;23.312;2023-07-09T03:00:52;95244.13;;;20.63;52.61
62697;BME280;48761;42.680;23.312;2023-07-09T03:03:21;95242.34;;;20.45;53.23
62697;BME280;48761;42.680;23.312;2023-07-09T03:05:47;95237.91;;;20.63;52.64
62697;BME280;48761;42.680;23.312;2023-07-09T03:08:14;95254.09;;;20.63;52.43
62697;BME280;48761;42.680;23.312;2023-07-09T03:10:40;95252.22;;;20.55;52.76
62697;BME280;48761;42.680;23.312;2023-07-09T03:13:06;95254.59;;;20.31;53.31
62697;BME280;48761;42.680;23.312;2023-07-09T03:15:32;95241.03;;;20.85;52.68
62697;BME280;48761;42.680;23.312;2023-07-09T03:17:58;95249.06;;;21.03;52.42
62697;BME280;48761;42.680;23.312;2023-07-09T03:20:24;95254.47;;;21.03;52.09
62697;BME280;48761;42.680;23.312;2023-07-09T03:22:49;95244.78;;;21.44;52.22
62697;BME280;48761;42.680;23.312;2023-07-09T03:25:15;95263.59;;;21.95;51.02
62697;BME280;48761;42.680;23.312;2023-07-09T03:27:41;95263.06;;;22.25;50.37
62697;BME280;48761;42.680;23.312;2023-07-09T03:30:07;95264.44;;;22.30;50.13
62697;BME280;48761;42.680;23.312;2023-07-09T03:32:33;95264.25;;;22.23;50.56
62697;BME280;48761;42.680;23.312;2023-07-09T03:34:59;95268.44;;;22.59;49.88
62697;BME280;48761;42.680;23.312;2023-07-09T03:37:25;95251.94;;;22.86;49.48
62697;BME280;48761;42.680;23.312;2023-07-09T03:39:51;95264.28;;;22.97;49.55
62697;BME280;48761;42.680;23.312;2023-07-09T03:42:17;95256.81;;;22.99;49.20
62697;BME280;48761;42.680;23.312;2023-07-09T03:44:43;95256.78;;;23.07;49.07
62697;BME280;48761;42.680;23.312;2023-07-09T03:47:09;95257.50;;;23.33;48.67
62697;BME280;48761;42.680;23.312;2023-07-09T03:49:35;95262.56;;;23.68;48.18
62697;BME280;48761;42.680;23.312;2023-07-09T03:52:01;95264.94;;;23.71;47.97
62697;BME280;48761;42.680;23.312;2023-07-09T03:54:27;95254.28;;;23.84;47.63
62697;BME280;48761;42.680;23.312;2023-07-09T03:56:52;95250.22;;;23.89;47.60
62697;BME280;48761;42.680;23.312;2023-07-09T03:59:18;95263.09;;;24.10;47.18
62697;BME280;48761;42.680;23.312;2023-07-09T04:01:44;95262.22;;;24.33;46.79
62697;BME280;48761;42.680;23.312;2023-07-09T04:04:10;95267.31;;;24.51;46.73
62697;BME280;48761;42.680;23.312;2023-07-09T04:06:36;95268.56;;;24.25;47.33
62697;BME280;48761;42.680;23.312;2023-07-09T04:09:02;95259.66;;;24.16;47.05
62697;BME280;48761;42.680;23.312;2023-07-09T04:11:28;95271.28;;;24.25;46.94
62697;BME280;48761;42.680;23.312;2023-07-09T04:13:54;95260.06;;;24.28;46.76
62697;BME280;48761;42.680;23.312;2023-07-09T04:16:20;95280.09;;;24.81;46.38
62697;BME280;48761;42.680;23.312;2023-07-09T04:18:46;95276.81;;;25.16;45.69
62697;BME280;48761;42.680;23.312;2023-07-09T04:21:12;95285.56;;;25.49;44.87
62697;BME280;48761;42.680;23.312;2023-07-09T04:23:37;95287.09;;;25.36;44.83
62697;BME280;48761;42.680;23.312;2023-07-09T04:26:03;95283.53;;;25.36;44.67
62697;BME280;48761;42.680;23.312;2023-07-09T04:28:30;95282.16;;;24.94;45.91
62697;BME280;48761;42.680;23.312;2023-07-09T04:30:56;95291.91;;;25.56;44.10
62697;BME280;48761;42.680;23.312;2023-07-09T04:33:22;95277.59;;;25.84;43.85
62697;BME280;48761;42.680;23.312;2023-07-09T04:35:48;95286.03;;;26.12;42.98
62697;BME280;48761;42.680;23.312;2023-07-09T04:38:14;95287.50;;;26.14;42.74
62697;BME280;48761;42.680;23.312;2023-07-09T04:40:41;95299.88;;;26.61;42.14
62697;BME280;48761;42.680;23.312;2023-07-09T04:43:07;95300.22;;;26.29;42.12
62697;BME280;48761;42.680;23.312;2023-07-09T04:45:33;95306.56;;;26.87;41.45
62697;BME280;48761;42.680;23.312;2023-07-09T04:47:59;95300.28;;;26.93;41.33
62697;BME280;48761;42.680;23.312;2023-07-09T04:50:25;95290.09;;;26.73;41.12
62697;BME280;48761;42.680;23.312;2023-07-09T04:52:50;95289.38;;;26.93;40.97
62697;BME280;48761;42.680;23.312;2023-07-09T04:55:16;95289.56;;;27.20;41.02
62697;BME280;48761;42.680;23.312;2023-07-09T04:57:42;95295.88;;;27.28;40.28
62697;BME280;48761;42.680;23.312;2023-07-09T05:00:08;95291.47;;;26.91;41.17
62697;BME280;48761;42.680;23.312;2023-07-09T05:02:34;95296.69;;;27.22;40.14
62697;BME280;48761;42.680;23.312;2023-07-09T05:05:00;95310.66;;;26.76;40.93
62697;BME280;48761;42.680;23.312;2023-07-09T05:07:26;95291.50;;;26.98;40.73
62697;BME280;48761;42.680;23.312;2023-07-09T05:09:52;95310.97;;;27.24;40.52
62697;BME280;48761;42.680;23.312;2023-07-09T05:12:19;95302.72;;;27.59;39.70
62697;BME280;48761;42.680;23.312;2023-07-09T05:14:46;95307.31;;;27.45;39.96
62697;BME280;48761;42.680;23.312;2023-07-09T05:17:12;95299.19;;;27.66;39.17
62697;BME280;48761;42.680;23.312;2023-07-09T05:19:38;95304.38;;;28.37;38.27
62697;BME280;48761;42.680;23.312;2023-07-09T05:22:04;95312.81;;;27.59;38.74
62697;BME280;48761;42.680;23.312;2023-07-09T05:24:30;95309.72;;;26.11;40.25
62697;BME280;48761;42.680;23.312;2023-07-09T05:26:56;95310.78;;;25.95;40.89
62697;BME280;48761;42.680;23.312;2023-07-09T05:29:22;95308.75;;;24.69;43.22
62697;BME280;48761;42.680;23.312;2023-07-09T05:31:48;95305.31;;;25.21;42.65
62697;BME280;48761;42.680;23.312;2023-07-09T05:34:14;95313.13;;;25.98;41.77
62697;BME280;48761;42.680;23.312;2023-07-09T05:36:40;95308.56;;;26.27;40.88
62697;BME280;48761;42.680;23.312;2023-07-09T05:39:06;95312.78;;;26.81;40.45
62697;BME280;48761;42.680;23.312;2023-07-09T05:41:31;95312.19;;;27.14;39.71
62697;BME280;48761;42.680;23.312;2023-07-09T05:43:57;95307.44;;;27.86;38.94
62697;BME280;48761;42.680;23.312;2023-07-09T05:46:23;95306.63;;;27.85;38.36
62697;BME280;48761;42.680;23.312;2023-07-09T05:48:49;95310.34;;;27.22;38.97
62697;BME280;48761;42.680;23.312;2023-07-09T05:51:15;95311.69;;;27.39;39.08
62697;BME280;48761;42.680;23.312;2023-07-09T05:53:41;95301.16;;;27.01;39.66
62697;BME280;48761;42.680;23.312;2023-07-09T05:56:07;95302.25;;;27.42;39.71
62697;BME280;48761;42.680;23.312;2023-07-09T05:58:33;95307.16;;;27.18;39.23
62697;BME280;48761;42.680;23.312;2023-07-09T06:00:59;95307.19;;;27.74;38.67
62697;BME280;48761;42.680;23.312;2023-07-09T06:03:26;95308.38;;;28.14;38.56
62697;BME280;48761;42.680;23.312;2023-07-09T06:05:52;95306.06;;;28.31;38.11
62697;BME280;48761;42.680;23.312;2023-07-09T06:08:19;95311.09;;;28.27;37.93
62697;BME280;48761;42.680;23.312;2023-07-09T06:10:52;95312.19;;;28.53;37.81
62697;BME280;48761;42.680;23.312;2023-07-09T06:13:19;95304.19;;;28.52;38.15
62697;BME280;48761;42.680;23.312;2023-07-09T06:15:45;95310.44;;;29.27;37.30
62697;BME280;48761;42.680;23.312;2023-07-09T06:18:11;95298.88;;;28.03;39.36
62697;BME280;48761;42.680;23.312;2023-07-09T06:20:38;95303.56;;;27.53;39.63
62697;BME280;48761;42.680;23.312;2023-07-09T06:23:04;95298.13;;;26.82;40.93
62697;BME280;48761;42.680;23.312;2023-07-09T06:25:30;95309.75;;;27.33;39.68
62697;BME280;48761;42.680;23.312;2023-07-09T06:27:57;95288.63;;;28.18;39.24
62697;BME280;48761;42.680;23.312;2023-07-09T06:30:23;95293.22;;;28.25;38.50
62697;BME280;48761;42.680;23.312;2023-07-09T06:32:49;95298.72;;;28.72;37.72
62697;BME280;48761;42.680;23.312;2023-07-09T06:35:14;95289.84;;;28.29;38.48
62697;BME280;48761;42.680;23.312;2023-07-09T06:37:40;95291.97;;;28.27;38.11
62697;BME280;48761;42.680;23.312;2023-07-09T06:40:07;95299.97;;;28.63;37.58
62697;BME280;48761;42.680;23.312;2023-07-09T06:42:33;95283.56;;;28.15;38.23
62697;BME280;48761;42.680;23.312;2023-07-09T06:44:59;95295.75;;;28.19;38.20
62697;BME280;48761;42.680;23.312;2023-07-09T06:47:24;95287.72;;;29.13;36.42
62697;BME280;48761;42.680;23.312;2023-07-09T06:49:50;95287.75;;;27.35;38.63
62697;BME280;48761;42.680;23.312;2023-07-09T06:52:16;95292.19;;;27.42;39.65
62697;BME280;48761;42.680;23.312;2023-07-09T06:54:42;95286.88;;;28.04;38.12
62697;BME280;48761;42.680;23.312;2023-07-09T06:57:08;95290.28;;;28.13;38.06
62697;BME280;48761;42.680;23.312;2023-07-09T06:59:34;95289.00;;;29.63;36.19
62697;BME280;48761;42.680;23.312;2023-07-09T07:02:00;95290.84;;;29.76;35.52
62697;BME280;48761;42.680;23.312;2023-07-09T07:04:26;95288.63;;;28.73;37.01
62697;BME280;48761;42.680;23.312;2023-07-09T07:06:52;95290.50;;;30.38;34.62
62697;BME280;48761;42.680;23.312;2023-07-09T07:09:18;95293.63;;;28.96;35.86
62697;BME280;48761;42.680;23.312;2023-07-09T07:11:44;95293.59;;;29.24;35.35
62697;BME280;48761;42.680;23.312;2023-07-09T07:14:09;95281.81;;;29.16;36.26
62697;BME280;48761;42.680;23.312;2023-07-09T07:16:35;95292.63;;;28.50;36.86
62697;BME280;48761;42.680;23.312;2023-07-09T07:19:01;95290.53;;;29.46;36.10
62697;BME280;48761;42.680;23.312;2023-07-09T07:21:27;95289.06;;;29.96;34.55
62697;BME280;48761;42.680;23.312;2023-07-09T07:23:53;95282.34;;;28.59;36.51
62697;BME280;48761;42.680;23.312;2023-07-09T07:26:19;95273.81;;;29.08;36.09
62697;BME280;48761;42.680;23.312;2023-07-09T07:28:46;95284.25;;;29.45;35.62
62697;BME280;48761;42.680;23.312;2023-07-09T07:31:11;95263.81;;;28.61;36.95
62697;BME280;48761;42.680;23.312;2023-07-09T07:33:39;95277.00;;;30.04;34.87
62697;BME280;48761;42.680;23.312;2023-07-09T07:36:06;95275.56;;;29.55;35.00
62697;BME280;48761;42.680;23.312;2023-07-09T07:38:32;95275.16;;;30.56;34.20
62697;BME280;48761;42.680;23.312;2023-07-09T07:40:58;95271.81;;;29.88;34.55
62697;BME280;48761;42.680;23.312;2023-07-09T07:43:24;95273.06;;;30.25;34.45
62697;BME280;48761;42.680;23.312;2023-07-09T07:45:49;95259.38;;;29.93;34.59
62697;BME280;48761;42.680;23.312;2023-07-09T07:48:15;95278.03;;;29.17;35.37
62697;BME280;48761;42.680;23.312;2023-07-09T07:50:41;95277.03;;;28.30;36.65
62697;BME280;48761;42.680;23.312;2023-07-09T07:53:08;95272.53;;;29.24;35.59
62697;BME280;48761;42.680;23.312;2023-07-09T07:55:34;95268.22;;;29.49;35.45
62697;BME280;48761;42.680;23.312;2023-07-09T07:58:00;95261.00;;;29.61;35.08
62697;BME280;48761;42.680;23.312;2023-07-09T08:00:26;95271.75;;;29.56;35.96
62697;BME280;48761;42.680;23.312;2023-07-09T08:02:52;95272.66;;;30.21;33.00
62697;BME280;48761;42.680;23.312;2023-07-09T08:05:17;95264.75;;;30.39;33.33
62697;BME280;48761;42.680;23.312;2023-07-09T08:07:43;95273.72;;;30.97;33.31
62697;BME280;48761;42.680;23.312;2023-07-09T08:10:11;95258.88;;;31.05;33.20
62697;BME280;48761;42.680;23.312;2023-07-09T08:12:38;95265.34;;;29.37;34.67
62697;BME280;48761;42.680;23.312;2023-07-09T08:15:05;95266.19;;;29.30;35.64
62697;BME280;48761;42.680;23.312;2023-07-09T08:17:31;95263.75;;;30.01;34.12
62697;BME280;48761;42.680;23.312;2023-07-09T08:19:57;95260.06;;;29.81;34.14
62697;BME280;48761;42.680;23.312;2023-07-09T08:22:23;95260.75;;;29.70;33.53
62697;BME280;48761;42.680;23.312;2023-07-09T08:24:50;95255.56;;;29.94;33.96
62697;BME280;48761;42.680;23.312;2023-07-09T08:27:16;95245.22;;;29.04;34.87
62697;BME280;48761;42.680;23.312;2023-07-09T08:29:42;95249.28;;;29.40;34.83
62697;BME280;48761;42.680;23.312;2023-07-09T08:32:09;95248.09;;;29.29;35.36
62697;BME280;48761;42.680;23.312;2023-07-09T08:34:37;95253.31;;;29.84;35.45
62697;BME280;48761;42.680;23.312;2023-07-09T08:37:04;95260.38;;;29.00;36.04
62697;BME280;48761;42.680;23.312;2023-07-09T08:39:31;95248.34;;;29.67;35.50
62697;BME280;48761;42.680;23.312;2023-07-09T08:42:10;95250.41;;;29.26;35.87
62697;BME280;48761;42.680;23.312;2023-07-09T08:50:21;95245.03;;;28.85;36.73
62697;BME280;48761;42.680;23.312;2023-07-09T08:52:50;95248.56;;;29.19;36.19
62697;BME280;48761;42.680;23.312;2023-07-09T08:55:20;95249.75;;;29.37;36.59
62697;BME280;48761;42.680;23.312;2023-07-09T08:57:55;95252.47;;;28.50;37.59
62697;BME280;48761;42.680;23.312;2023-07-09T09:05:58;95246.44;;;29.22;37.07
62697;BME280;48761;42.680;23.312;2023-07-09T09:13:48;95249.91;;;28.83;37.03
62697;BME280;48761;42.680;23.312;2023-07-09T09:16:30;95250.22;;;29.20;36.77
62697;BME280;48761;42.680;23.312;2023-07-09T09:18:59;95249.28;;;30.19;35.14
62697;BME280;48761;42.680;23.312;2023-07-09T09:21:36;95250.06;;;30.26;34.94
62697;BME280;48761;42.680;23.312;2023-07-09T09:24:19;95247.06;;;29.70;36.21
62697;BME280;48761;42.680;23.312;2023-07-09T09:26:48;95245.38;;;29.75;35.55
62697;BME280;48761;42.680;23.312;2023-07-09T09:29:17;95239.16;;;30.19;35.39
62697;BME280;48761;42.680;23.312;2023-07-09T09:31:49;95249.22;;;30.32;35.15
62697;BME280;48761;42.680;23.312;2023-07-09T09:34:21;95249.69;;;28.78;36.27
62697;BME280;48761;42.680;23.312;2023-07-09T09:36:48;95245.28;;;28.76;36.60
62697;BME280;48761;42.680;23.312;2023-07-09T09:39:14;95241.09;;;28.40;36.69
62697;BME280;48761;42.680;23.312;2023-07-09T09:41:40;95244.69;;;28.34;37.28
62697;BME280;48761;42.680;23.312;2023-07-09T09:44:06;95246.50;;;28.94;36.22
62697;BME280;48761;42.680;23.312;2023-07-09T09:46:42;95238.34;;;29.47;35.75
62697;BME280;48761;42.680;23.312;2023-07-09T09:49:10;95235.41;;;29.81;35.06
62697;BME280;48761;42.680;23.312;2023-07-09T09:51:39;95223.34;;;29.04;35.63
62697;BME280;48761;42.680;23.312;2023-07-09T09:54:21;95233.75;;;29.34;36.32
62697;BME280;48761;42.680;23.312;2023-07-09T09:56:52;95224.75;;;29.73;34.63
62697;BME280;48761;42.680;23.312;2023-07-09T09:59:32;95233.34;;;29.37;35.74
62697;BME280;48761;42.680;23.312;2023-07-09T10:02:00;95240.25;;;28.73;36.80
62697;BME280;48761;42.680;23.312;2023-07-09T10:04:27;95216.16;;;29.16;34.91
62697;BME280;48761;42.680;23.312;2023-07-09T10:06:56;95216.59;;;29.06;35.59
62697;BME280;48761;42.680;23.312;2023-07-09T10:09:52;95197.22;;;29.08;36.20
62697;BME280;48761;42.680;23.312;2023-07-09T10:12:39;95220.94;;;29.28;35.18
62697;BME280;48761;42.680;23.312;2023-07-09T10:15:39;95217.38;;;29.27;35.48
62697;BME280;48761;42.680;23.312;2023-07-09T10:21:05;95219.00;;;29.35;35.24
62697;BME280;48761;42.680;23.312;2023-07-09T10:23:37;95221.59;;;29.30;35.28
62697;BME280;48761;42.680;23.312;2023-07-09T10:26:14;95219.38;;;29.46;34.62
62697;BME280;48761;42.680;23.312;2023-07-09T10:31:40;95216.31;;;28.48;35.58
62697;BME280;48761;42.680;23.312;2023-07-09T10:34:19;95215.91;;;28.51;35.90
62697;BME280;48761;42.680;23.312;2023-07-09T10:39:22;95207.94;;;29.56;34.67
62697;BME280;48761;42.680;23.312;2023-07-09T10:41:51;95209.66;;;29.17;35.25
62697;BME280;48761;42.680;23.312;2023-07-09T10:44:25;95205.09;;;28.77;35.21
62697;BME280;48761;42.680;23.312;2023-07-09T10:46:59;95212.81;;;29.14;35.29
62697;BME280;48761;42.680;23.312;2023-07-09T10:49:31;95203.50;;;29.61;34.19
62697;BME280;48761;42.680;23.312;2023-07-09T10:52:06;95205.38;;;29.68;37.04
62697;BME280;48761;42.680;23.312;2023-07-09T10:57:26;95209.75;;;29.36;34.92
62697;BME280;48761;42.680;23.312;2023-07-09T10:59:55;95208.50;;;29.32;33.69
62697;BME280;48761;42.680;23.312;2023-07-09T11:02:33;95207.84;;;29.76;33.32
62697;BME280;48761;42.680;23.312;2023-07-09T11:05:01;95202.03;;;29.98;32.39
62697;BME280;48761;42.680;23.312;2023-07-09T11:07:32;95191.50;;;29.62;32.98
62697;BME280;48761;42.680;23.312;2023-07-09T11:10:01;95195.69;;;29.26;32.62
62697;BME280;48761;42.680;23.312;2023-07-09T11:12:36;95209.06;;;28.88;32.84
62697;BME280;48761;42.680;23.312;2023-07-09T11:15:09;95196.81;;;29.04;32.83
62697;BME280;48761;42.680;23.312;2023-07-09T11:17:40;95203.56;;;29.02;32.93
62697;BME280;48761;42.680;23.312;2023-07-09T11:20:16;95201.44;;;29.57;32.21
62697;BME280;48761;42.680;23.312;2023-07-09T11:22:51;95196.81;;;29.11;33.87
62697;BME280;48761;42.680;23.312;2023-07-09T11:28:11;95191.22;;;29.38;32.85
62697;BME280;48761;42.680;23.312;2023-07-09T11:30:54;95191.03;;;28.73;33.22
62697;BME280;48761;42.680;23.312;2023-07-09T11:33:27;95197.56;;;29.32;33.31
62697;BME280;48761;42.680;23.312;2023-07-09T11:36:06;95173.25;;;29.10;32.85
62697;BME280;48761;42.680;23.312;2023-07-09T11:38:43;95171.97;;;29.52;32.51
62697;BME280;48761;42.680;23.312;2023-07-09T11:41:41;95183.28;;;29.30;33.97
62697;BME280;48761;42.680;23.312;2023-07-09T11:46:36;95179.19;;;28.93;34.16
62697;BME280;48761;42.680;23.312;2023-07-09T11:49:07;95185.53;;;29.33;34.53
62697;BME280;48761;42.680;23.312;2023-07-09T11:51:42;95179.59;;;28.97;35.39
62697;BME280;48761;42.680;23.312;2023-07-09T11:54:11;95181.88;;;29.00;35.32
62697;BME280;48761;42.680;23.312;2023-07-09T11:56:38;95183.03;;;28.79;35.31
62697;BME280;48761;42.680;23.312;2023-07-09T11:59:05;95171.69;;;29.28;34.88
62697;BME280;48761;42.680;23.312;2023-07-09T12:01:45;95152.50;;;29.35;34.48
62697;BME280;48761;42.680;23.312;2023-07-09T12:04:16;95170.53;;;29.49;34.76
62697;BME280;48761;42.680;23.312;2023-07-09T12:06:43;95172.47;;;28.89;36.06
62697;BME280;48761;42.680;23.312;2023-07-09T12:09:19;95164.81;;;29.05;34.87
62697;BME280;48761;42.680;23.312;2023-07-09T12:11:48;95168.28;;;28.86;35.01
62697;BME280;48761;42.680;23.312;2023-07-09T12:14:22;95169.94;;;28.87;35.19
62697;BME280;48761;42.680;23.312;2023-07-09T12:16:52;95165.94;;;28.97;35.53
62697;BME280;48761;42.680;23.312;2023-07-09T12:19:21;95161.22;;;29.50;34.92
62697;BME280;48761;42.680;23.312;2023-07-09T12:21:56;95165.78;;;29.63;34.79
62697;BME280;48761;42.680;23.312;2023-07-09T12:24:25;95161.28;;;29.83;34.59
62697;BME280;48761;42.680;23.312;2023-07-09T12:27:00;95158.34;;;29.45;35.22
62697;BME280;48761;42.680;23.312;2023-07-09T12:29:28;95157.56;;;29.31;35.57
62697;BME280;48761;42.680;23.312;2023-07-09T12:31:58;95155.91;;;29.95;34.29
62697;BME280;48761;42.680;23.312;2023-07-09T12:34:25;95161.28;;;29.43;34.80
62697;BME280;48761;42.680;23.312;2023-07-09T12:36:52;95149.66;;;29.48;34.60
62697;BME280;48761;42.680;23.312;2023-07-09T12:39:27;95159.81;;;29.80;34.40
62697;BME280;48761;42.680;23.312;2023-07-09T12:41:56;95155.34;;;29.14;35.06
62697;BME280;48761;42.680;23.312;2023-07-09T12:44:25;95149.09;;;29.39;35.01
62697;BME280;48761;42.680;23.312;2023-07-09T12:46:53;95146.88;;;29.23;35.67
62697;BME280;48761;42.680;23.312;2023-07-09T12:49:27;95142.91;;;29.18;35.32
62697;BME280;48761;42.680;23.312;2023-07-09T12:51:57;95141.88;;;29.84;34.13
62697;BME280;48761;42.680;23.312;2023-07-09T12:54:23;95123.94;;;29.56;34.06
62697;BME280;48761;42.680;23.312;2023-07-09T12:56:53;95143.53;;;29.53;34.29
62697;BME280;48761;42.680;23.312;2023-07-09T12:59:38;95143.06;;;29.95;33.18
62697;BME280;48761;42.680;23.312;2023-07-09T13:04:39;95142.03;;;29.90;33.83
62697;BME280;48761;42.680;23.312;2023-07-09T13:09:52;95135.66;;;29.96;33.89
62697;BME280;48761;42.680;23.312;2023-07-09T13:12:20;95144.03;;;30.01;33.97
62697;BME280;48761;42.680;23.312;2023-07-09T13:14:52;95139.03;;;29.98;33.72
62697;BME280;48761;42.680;23.312;2023-07-09T13:17:19;95132.94;;;29.31;34.64
62697;BME280;48761;42.680;23.312;2023-07-09T13:19:45;95116.50;;;29.63;34.17
62697;BME280;48761;42.680;23.312;2023-07-09T13:22:14;95145.22;;;29.54;34.13
62697;BME280;48761;42.680;23.312;2023-07-09T13:24:40;95135.34;;;29.85;33.66
62697;BME280;48761;42.680;23.312;2023-07-09T13:27:11;95133.59;;;29.26;34.82
62697;BME280;48761;42.680;23.312;2023-07-09T13:29:37;95148.00;;;29.01;35.13
62697;BME280;48761;42.680;23.312;2023-07-09T13:32:09;95146.50;;;28.52;36.31
62697;BME280;48761;42.680;23.312;2023-07-09T13:34:35;95147.91;;;29.28;34.95
62697;BME280;48761;42.680;23.312;2023-07-09T13:37:01;95142.19;;;28.84;36.28